createdAt,value
2022-08-29T00:01:05.316Z,16.10
2022-08-29T00:03:38.748Z,16.12
2022-08-29T00:06:11.056Z,16.04
2022-08-29T00:08:40.726Z,15.96
2022-08-29T00:11:10.572Z,15.87
2022-08-29T00:13:40.249Z,15.85
2022-08-29T00:16:10.022Z,15.84
2022-08-29T00:18:42.984Z,15.90
2022-08-29T00:21:12.621Z,15.84
2022-08-29T00:23:42.549Z,15.77
2022-08-29T00:26:12.186Z,15.68
2022-08-29T00:28:41.873Z,15.56
2022-08-29T00:31:11.551Z,15.56
2022-08-29T00:33:43.882Z,15.47
2022-08-29T00:36:13.666Z,15.38
2022-08-29T00:38:43.486Z,15.31
2022-08-29T00:41:13.565Z,15.27
2022-08-29T00:43:43.245Z,15.33
2022-08-29T00:46:34.677Z,15.40
2022-08-29T00:49:11.782Z,15.32
2022-08-29T00:51:43.263Z,15.30
2022-08-29T00:54:14.566Z,15.34
2022-08-29T00:56:45.762Z,15.39
2022-08-29T00:59:19.493Z,15.45
2022-08-29T01:01:49.900Z,15.36
2022-08-29T01:04:24.307Z,15.43
2022-08-29T01:06:55.791Z,15.41
2022-08-29T01:09:26.444Z,15.41
2022-08-29T01:12:09.139Z,15.41
2022-08-29T01:14:39.235Z,15.35
2022-08-29T01:17:11.266Z,15.37
2022-08-29T01:19:49.934Z,15.30
2022-08-29T01:22:33.846Z,15.33
2022-08-29T01:25:10.193Z,15.30
2022-08-29T01:27:43.297Z,15.24
2022-08-29T01:30:15.253Z,15.10
2022-08-29T01:32:45.443Z,15.04
2022-08-29T01:35:15.714Z,15.04
2022-08-29T01:37:47.098Z,14.96
2022-08-29T01:40:19.550Z,14.95
2022-08-29T01:42:49.231Z,14.79
2022-08-29T01:45:20.034Z,14.73
2022-08-29T01:47:50.522Z,14.73
2022-08-29T01:50:20.362Z,14.50
2022-08-29T01:52:50.142Z,14.60
2022-08-29T01:55:22.595Z,14.74
2022-08-29T01:57:52.208Z,14.73
2022-08-29T02:00:25.888Z,14.71
2022-08-29T02:02:56.823Z,14.57
2022-08-29T02:05:26.437Z,14.75
2022-08-29T02:07:56.151Z,14.70
2022-08-29T02:10:28.589Z,14.77
2022-08-29T02:12:58.365Z,14.75
2022-08-29T02:15:28.038Z,14.62
2022-08-29T02:17:57.628Z,14.62
2022-08-29T02:20:27.497Z,14.61
2022-08-29T02:22:57.142Z,14.67
2022-08-29T02:25:46.603Z,14.69
2022-08-29T02:28:20.829Z,14.69
2022-08-29T02:30:56.589Z,14.57
2022-08-29T02:33:27.356Z,14.66
2022-08-29T02:35:58.697Z,14.60
2022-08-29T02:38:29.586Z,14.69
2022-08-29T02:41:02.459Z,14.59
2022-08-29T02:43:32.275Z,14.47
2022-08-29T02:46:02.386Z,14.33
2022-08-29T02:48:32.070Z,14.51
2022-08-29T02:51:01.806Z,14.59
2022-08-29T02:53:34.074Z,14.62
2022-08-29T02:56:06.510Z,14.64
2022-08-29T02:58:39.757Z,14.64
2022-08-29T03:01:09.599Z,14.63
2022-08-29T03:03:39.281Z,14.59
2022-08-29T03:06:09.592Z,14.62
2022-08-29T03:08:39.495Z,14.65
2022-08-29T03:11:11.799Z,14.67
2022-08-29T03:13:41.481Z,14.52
2022-08-29T03:16:11.593Z,14.51
2022-08-29T03:18:41.635Z,14.49
2022-08-29T03:21:17.512Z,14.54
2022-08-29T03:23:47.161Z,14.49
2022-08-29T03:26:19.666Z,14.53
2022-08-29T03:28:49.648Z,14.54
2022-08-29T03:31:19.487Z,14.32
2022-08-29T03:33:49.287Z,14.54
2022-08-29T03:36:19.010Z,14.66
2022-08-29T03:38:49.343Z,14.68
2022-08-29T03:41:27.422Z,14.68
2022-08-29T03:43:58.989Z,14.67
2022-08-29T03:46:29.481Z,14.70
2022-08-29T03:48:59.175Z,14.66
2022-08-29T03:51:31.302Z,14.78
2022-08-29T03:54:01.136Z,14.86
2022-08-29T03:56:34.394Z,14.85
2022-08-29T03:59:04.067Z,14.70
2022-08-29T04:01:33.813Z,14.46
2022-08-29T04:04:03.500Z,14.40
2022-08-29T04:06:33.918Z,14.48
2022-08-29T04:09:03.794Z,14.56
2022-08-29T04:11:36.470Z,14.69
2022-08-29T04:14:06.222Z,14.85
2022-08-29T04:16:36.046Z,14.96
2022-08-29T04:19:05.730Z,15.12
2022-08-29T04:21:38.542Z,15.21
2022-08-29T04:24:08.748Z,15.35
2022-08-29T04:26:41.663Z,15.40
2022-08-29T04:29:13.883Z,15.31
2022-08-29T04:31:45.647Z,15.29
2022-08-29T04:34:15.960Z,15.30
2022-08-29T04:36:47.273Z,15.39
2022-08-29T04:39:18.188Z,15.55
2022-08-29T04:41:50.538Z,15.68
2022-08-29T04:44:20.193Z,15.65
2022-08-29T04:46:49.865Z,15.69
2022-08-29T04:49:20.059Z,15.67
2022-08-29T04:51:49.975Z,15.61
2022-08-29T04:54:19.669Z,15.64
2022-08-29T04:56:52.167Z,15.74
2022-08-29T04:59:27.061Z,15.71
2022-08-29T05:01:57.671Z,15.80
2022-08-29T05:04:27.958Z,15.97
2022-08-29T05:06:58.685Z,16.08
2022-08-29T05:09:28.370Z,16.12
2022-08-29T05:12:00.654Z,16.19
2022-08-29T05:14:35.174Z,16.26
2022-08-29T05:17:04.827Z,16.28
2022-08-29T05:19:36.543Z,16.25
2022-08-29T05:22:16.655Z,16.46
2022-08-29T05:24:49.036Z,16.23
2022-08-29T05:27:23.129Z,16.41
2022-08-29T05:29:55.117Z,16.43
2022-08-29T05:32:27.080Z,16.39
2022-08-29T05:34:57.726Z,16.35
2022-08-29T05:37:28.978Z,16.38
2022-08-29T05:39:59.010Z,16.29
2022-08-29T05:42:31.906Z,16.33
2022-08-29T05:45:01.622Z,16.20
2022-08-29T05:47:35.320Z,16.26
2022-08-29T05:50:07.427Z,16.20
2022-08-29T05:52:38.179Z,16.18
2022-08-29T05:55:08.768Z,16.13
2022-08-29T05:57:42.090Z,16.26
2022-08-29T06:00:13.282Z,16.16
2022-08-29T06:02:43.093Z,16.41
2022-08-29T06:05:13.316Z,16.47
2022-08-29T06:07:43.007Z,16.60
2022-08-29T06:10:12.957Z,16.73
2022-08-29T06:12:46.225Z,16.81
2022-08-29T06:15:16.962Z,16.98
2022-08-29T06:17:46.661Z,17.08
2022-08-29T06:20:16.518Z,17.14
2022-08-29T06:22:46.187Z,17.24
2022-08-29T06:25:37.993Z,17.40
2022-08-29T06:28:09.983Z,17.53
2022-08-29T06:30:41.281Z,17.40
2022-08-29T06:33:12.051Z,17.50
2022-08-29T06:35:43.731Z,17.20
2022-08-29T06:38:15.782Z,17.14
2022-08-29T06:40:45.606Z,17.43
2022-08-29T06:43:18.103Z,17.44
2022-08-29T06:45:47.818Z,17.48
2022-08-29T06:48:22.925Z,17.68
2022-08-29T06:50:56.478Z,17.71
2022-08-29T06:53:31.900Z,17.77
2022-08-29T06:56:11.042Z,17.76
2022-08-29T06:58:45.187Z,17.78
2022-08-29T07:01:17.689Z,17.84
2022-08-29T07:03:49.083Z,17.95
2022-08-29T07:06:20.591Z,17.97
2022-08-29T07:08:55.759Z,18.10
2022-08-29T07:11:26.363Z,18.16
2022-08-29T07:13:59.974Z,18.22
2022-08-29T07:16:30.898Z,18.42
2022-08-29T07:19:04.241Z,18.48
2022-08-29T07:21:34.538Z,18.32
2022-08-29T07:24:06.289Z,18.40
2022-08-29T07:26:41.446Z,18.05
2022-08-29T07:29:18.229Z,18.28
2022-08-29T07:31:48.542Z,18.15
2022-08-29T07:34:20.520Z,18.02
2022-08-29T07:36:51.680Z,18.25
2022-08-29T07:39:24.159Z,18.36
2022-08-29T07:41:54.946Z,18.28
2022-08-29T07:44:33.148Z,18.50
2022-08-29T07:47:04.382Z,18.39
2022-08-29T07:49:41.138Z,18.40
2022-08-29T07:52:11.713Z,18.37
2022-08-29T07:54:41.438Z,18.48
2022-08-29T07:57:14.974Z,18.53
2022-08-29T07:59:48.241Z,18.95
2022-08-29T08:02:22.222Z,19.16
2022-08-29T08:04:52.406Z,19.17
2022-08-29T08:07:29.342Z,19.28
2022-08-29T08:10:00.413Z,19.34
2022-08-29T08:12:30.247Z,19.49
2022-08-29T08:15:03.580Z,19.59
2022-08-29T08:17:35.861Z,19.55
2022-08-29T08:20:08.031Z,19.61
2022-08-29T08:22:40.825Z,19.61
2022-08-29T08:25:14.138Z,19.69
2022-08-29T08:27:44.011Z,19.81
2022-08-29T08:30:18.914Z,19.92
2022-08-29T08:32:54.985Z,19.68
2022-08-29T08:35:25.760Z,20.10
2022-08-29T08:37:57.694Z,20.14
2022-08-29T08:40:30.433Z,20.38
2022-08-29T08:43:03.687Z,20.53
2022-08-29T08:45:40.724Z,20.62
2022-08-29T08:48:13.848Z,20.62
2022-08-29T08:50:52.446Z,20.54
2022-08-29T08:53:30.001Z,20.72
2022-08-29T08:56:01.372Z,20.66
2022-08-29T08:58:37.337Z,20.50
2022-08-29T09:01:21.562Z,20.57
2022-08-29T09:04:06.181Z,20.56
2022-08-29T09:06:56.838Z,20.47
2022-08-29T09:09:35.776Z,20.29
2022-08-29T09:12:17.475Z,20.27
2022-08-29T09:15:00.345Z,20.03
2022-08-29T09:17:41.334Z,20.13
2022-08-29T09:20:17.037Z,20.14
2022-08-29T09:22:59.693Z,20.28
2022-08-29T09:25:36.035Z,20.29
2022-08-29T09:28:10.100Z,20.29
2022-08-29T09:30:42.303Z,20.39
2022-08-29T09:33:16.934Z,20.38
2022-08-29T09:35:51.962Z,20.52
2022-08-29T09:38:25.778Z,20.53
2022-08-29T09:40:57.679Z,20.62
2022-08-29T09:43:36.372Z,20.69
2022-08-29T09:46:24.990Z,20.78
2022-08-29T09:49:15.677Z,20.97
2022-08-29T09:51:51.029Z,21.10
2022-08-29T09:54:28.622Z,21.21
2022-08-29T09:57:07.628Z,21.32
2022-08-29T09:59:39.950Z,21.35
2022-08-29T10:02:23.731Z,21.53
2022-08-29T10:04:59.985Z,21.64
2022-08-29T10:07:37.696Z,21.73
2022-08-29T10:10:17.039Z,21.61
2022-08-29T10:12:53.212Z,21.57
2022-08-29T10:15:49.580Z,21.76
2022-08-29T10:18:28.808Z,21.86
2022-08-29T10:21:13.111Z,21.89
2022-08-29T10:24:00.418Z,21.97
2022-08-29T10:26:42.137Z,21.85
2022-08-29T10:29:29.641Z,21.89
2022-08-29T10:32:10.826Z,21.82
2022-08-29T10:34:58.212Z,21.94
2022-08-29T10:37:40.827Z,22.15
2022-08-29T10:40:17.688Z,22.42
2022-08-29T10:42:52.769Z,22.68
2022-08-29T10:45:34.548Z,22.98
2022-08-29T10:48:14.302Z,23.02
2022-08-29T10:50:53.317Z,22.63
2022-08-29T10:53:30.441Z,23.01
2022-08-29T10:56:06.616Z,23.05
2022-08-29T10:58:53.613Z,23.07
2022-08-29T11:01:27.993Z,23.05
2022-08-29T11:04:17.755Z,23.19
2022-08-29T11:06:55.821Z,23.29
2022-08-29T11:09:31.990Z,23.44
2022-08-29T11:12:09.356Z,23.45
2022-08-29T11:14:49.293Z,23.49
2022-08-29T11:17:21.866Z,23.55
2022-08-29T11:20:02.017Z,23.76
2022-08-29T11:22:38.523Z,23.75
2022-08-29T11:25:15.473Z,23.93
2022-08-29T11:27:57.631Z,23.89
2022-08-29T11:30:47.949Z,23.81
2022-08-29T11:33:35.328Z,23.86
2022-08-29T11:36:22.760Z,23.76
2022-08-29T11:39:26.009Z,23.92
2022-08-29T11:42:01.822Z,24.23
2022-08-29T11:44:36.538Z,24.21
2022-08-29T11:47:50.329Z,23.99
2022-08-29T11:50:33.680Z,23.96
2022-08-29T11:53:12.177Z,23.85
2022-08-29T11:56:07.681Z,23.72
2022-08-29T11:58:50.131Z,23.83
2022-08-29T12:01:49.744Z,23.62
2022-08-29T12:05:00.793Z,23.67
2022-08-29T12:07:39.328Z,23.74
2022-08-29T12:10:13.715Z,23.85
2022-08-29T12:12:49.483Z,23.81
2022-08-29T12:15:51.682Z,23.85
2022-08-29T12:18:36.615Z,23.88
2022-08-29T12:21:47.214Z,23.96
2022-08-29T12:24:57.054Z,23.97
2022-08-29T12:27:43.748Z,24.03
2022-08-29T12:30:16.175Z,24.09
2022-08-29T12:33:08.084Z,24.24
2022-08-29T12:36:08.927Z,24.31
2022-08-29T12:38:53.532Z,24.25
2022-08-29T12:41:36.453Z,24.49
2022-08-29T12:44:16.710Z,24.53
2022-08-29T12:46:54.284Z,24.56
2022-08-29T12:49:28.995Z,24.45
2022-08-29T12:52:01.911Z,24.56
2022-08-29T12:54:38.581Z,24.58
2022-08-29T12:57:11.134Z,24.53
2022-08-29T12:59:47.395Z,24.56
2022-08-29T13:02:27.295Z,24.50
2022-08-29T13:04:57.737Z,24.38
2022-08-29T13:07:30.367Z,24.52
2022-08-29T13:10:03.727Z,24.62
2022-08-29T13:12:35.685Z,24.71
2022-08-29T13:15:08.043Z,24.85
2022-08-29T13:17:40.207Z,24.90
2022-08-29T13:20:41.154Z,25.02
2022-08-29T13:23:18.390Z,24.89
2022-08-29T13:25:55.540Z,24.89
2022-08-29T13:28:33.363Z,24.91
2022-08-29T13:31:26.376Z,24.95
2022-08-29T13:34:22.078Z,25.02
2022-08-29T13:37:06.397Z,25.11
2022-08-29T13:39:43.561Z,25.21
2022-08-29T13:42:35.287Z,25.18
2022-08-29T13:45:24.494Z,25.03
2022-08-29T13:48:02.338Z,24.95
2022-08-29T13:50:34.023Z,24.93
2022-08-29T13:53:04.716Z,25.11
2022-08-29T13:55:36.009Z,25.22
2022-08-29T13:58:08.401Z,25.29
2022-08-29T14:00:38.280Z,25.21
2022-08-29T14:03:09.576Z,25.17
2022-08-29T14:05:39.900Z,25.24
2022-08-29T14:08:13.270Z,25.16
2022-08-29T14:10:43.245Z,25.21
2022-08-29T14:13:15.576Z,25.07
2022-08-29T14:15:45.508Z,25.19
2022-08-29T14:18:16.644Z,25.01
2022-08-29T14:20:46.457Z,25.04
2022-08-29T14:23:19.133Z,25.29
2022-08-29T14:25:52.405Z,25.50
2022-08-29T14:28:25.705Z,25.50
2022-08-29T14:30:56.650Z,25.41
2022-08-29T14:33:26.437Z,25.53
2022-08-29T14:35:56.119Z,25.45
2022-08-29T14:38:25.825Z,25.27
2022-08-29T14:40:55.624Z,25.22
2022-08-29T14:43:28.959Z,25.22
2022-08-29T14:45:59.846Z,25.24
2022-08-29T14:48:30.195Z,25.25
2022-08-29T14:51:00.955Z,25.32
2022-08-29T14:53:33.023Z,25.43
2022-08-29T14:56:06.846Z,25.40
2022-08-29T14:58:40.166Z,25.31
2022-08-29T15:01:10.415Z,25.29
2022-08-29T15:03:40.153Z,25.19
2022-08-29T15:06:10.870Z,25.37
2022-08-29T15:08:40.590Z,25.29
2022-08-29T15:11:11.876Z,25.21
2022-08-29T15:13:44.282Z,25.33
2022-08-29T15:16:15.905Z,25.37
2022-08-29T15:19:37.190Z,25.29
2022-08-29T15:21:36.552Z,25.43
2022-08-29T15:24:07.927Z,25.17
2022-08-29T15:26:37.752Z,25.50
2022-08-29T15:29:10.030Z,25.48
2022-08-29T15:31:40.837Z,25.39
2022-08-29T15:34:12.531Z,25.48
2022-08-29T15:36:45.937Z,25.52
2022-08-29T15:39:15.610Z,25.45
2022-08-29T15:41:46.400Z,25.64
2022-08-29T15:44:19.776Z,25.60
2022-08-29T15:46:51.029Z,25.67
2022-08-29T15:49:23.472Z,25.68
2022-08-29T15:51:55.475Z,25.63
2022-08-29T15:54:27.070Z,25.44
2022-08-29T15:56:57.001Z,25.59
2022-08-29T15:59:54.421Z,25.66
2022-08-29T16:02:20.986Z,25.57
2022-08-29T16:04:54.782Z,25.56
2022-08-29T16:07:28.656Z,25.64
2022-08-29T16:10:00.411Z,25.58
2022-08-29T16:12:31.493Z,25.47
2022-08-29T16:15:09.424Z,25.49
2022-08-29T16:17:39.769Z,25.56
2022-08-29T16:20:13.393Z,25.68
2022-08-29T16:22:44.047Z,25.78
2022-08-29T16:25:15.835Z,25.72
2022-08-29T16:27:45.978Z,25.71
2022-08-29T16:30:19.372Z,25.61
2022-08-29T16:32:52.311Z,25.68
2022-08-29T16:35:22.690Z,25.60
2022-08-29T16:38:02.304Z,25.45
2022-08-29T16:40:33.642Z,25.24
2022-08-29T16:43:04.401Z,25.26
2022-08-29T16:45:37.108Z,25.17
2022-08-29T16:48:17.065Z,25.07
2022-08-29T16:50:48.172Z,24.95
2022-08-29T16:53:19.377Z,24.97
2022-08-29T16:55:50.100Z,24.74
2022-08-29T16:58:32.267Z,24.73
2022-08-29T17:01:04.635Z,24.77
2022-08-29T17:03:34.471Z,24.72
2022-08-29T17:06:04.275Z,24.70
2022-08-29T17:08:32.524Z,24.63
2022-08-29T17:10:59.559Z,24.62
2022-08-29T17:13:26.770Z,24.52
2022-08-29T17:15:55.314Z,24.63
2022-08-29T17:18:27.601Z,24.50
2022-08-29T17:20:59.886Z,24.28
2022-08-29T17:23:29.732Z,24.18
2022-08-29T17:26:01.626Z,24.22
2022-08-29T17:28:33.843Z,24.19
2022-08-29T17:31:05.507Z,24.02
2022-08-29T17:33:38.979Z,23.92
2022-08-29T17:36:11.416Z,24.02
2022-08-29T17:38:45.104Z,24.07
2022-08-29T17:41:17.562Z,24.03
2022-08-29T17:43:49.395Z,24.03
2022-08-29T17:46:21.955Z,23.95
2022-08-29T17:48:54.578Z,23.85
2022-08-29T17:51:24.659Z,23.80
2022-08-29T17:53:54.694Z,23.77
2022-08-29T17:56:32.756Z,23.68
2022-08-29T17:59:05.885Z,23.65
2022-08-29T18:01:36.671Z,23.55
2022-08-29T18:04:12.347Z,23.32
2022-08-29T18:06:42.673Z,23.21
2022-08-29T18:09:12.962Z,23.30
2022-08-29T18:11:44.495Z,23.19
2022-08-29T18:14:14.795Z,23.09
2022-08-29T18:16:44.860Z,23.05
2022-08-29T18:19:18.429Z,23.08
2022-08-29T18:21:48.347Z,22.94
2022-08-29T18:24:18.499Z,22.87
2022-08-29T18:26:50.140Z,22.89
2022-08-29T18:29:20.826Z,22.76
2022-08-29T18:31:51.285Z,22.74
2022-08-29T18:34:24.326Z,22.54
2022-08-29T18:36:54.204Z,22.56
2022-08-29T18:39:24.136Z,22.32
2022-08-29T18:41:54.826Z,22.41
2022-08-29T18:44:24.705Z,22.35
2022-08-29T18:46:54.534Z,22.29
2022-08-29T18:49:48.310Z,22.30
2022-08-29T18:52:18.577Z,22.15
2022-08-29T18:54:48.229Z,21.85
2022-08-29T18:57:18.977Z,21.92
2022-08-29T18:59:48.755Z,22.02
2022-08-29T19:02:18.618Z,21.86
2022-08-29T19:04:52.133Z,21.77
2022-08-29T19:07:24.153Z,21.68
2022-08-29T19:09:54.707Z,21.57
2022-08-29T19:12:24.495Z,21.47
2022-08-29T19:14:54.339Z,21.46
2022-08-29T19:17:23.996Z,21.28
2022-08-29T19:20:10.398Z,21.33
2022-08-29T19:22:40.399Z,21.30
2022-08-29T19:25:11.547Z,21.23
2022-08-29T19:27:44.232Z,21.31
2022-08-29T19:30:18.436Z,21.28
2022-08-29T19:32:48.472Z,21.19
2022-08-29T19:35:21.997Z,21.25
2022-08-29T19:37:54.142Z,21.30
2022-08-29T19:40:26.047Z,21.29
2022-08-29T19:42:56.987Z,21.23
2022-08-29T19:45:27.381Z,21.26
2022-08-29T19:48:00.410Z,21.20
2022-08-29T19:50:32.895Z,21.21
2022-08-29T19:53:03.276Z,21.11
2022-08-29T19:55:35.120Z,21.02
2022-08-29T19:58:04.975Z,20.95
2022-08-29T20:00:35.721Z,20.72
2022-08-29T20:03:05.410Z,20.75
2022-08-29T20:05:38.600Z,20.78
2022-08-29T20:08:09.711Z,20.73
2022-08-29T20:10:41.007Z,20.65
2022-08-29T20:13:10.659Z,20.70
2022-08-29T20:15:40.511Z,20.74
2022-08-29T20:18:11.271Z,20.73
2022-08-29T20:20:48.611Z,20.42
2022-08-29T20:23:18.415Z,20.64
2022-08-29T20:25:49.203Z,20.62
2022-08-29T20:28:19.917Z,20.46
2022-08-29T20:30:49.995Z,20.56
2022-08-29T20:33:23.355Z,20.60
2022-08-29T20:36:08.617Z,20.57
2022-08-29T20:38:40.471Z,20.46
2022-08-29T20:41:10.193Z,20.28
2022-08-29T20:43:39.897Z,20.25
2022-08-29T20:46:10.660Z,20.08
2022-08-29T20:48:41.294Z,20.30
2022-08-29T20:51:14.602Z,20.30
2022-08-29T20:53:44.584Z,20.30
2022-08-29T20:56:15.335Z,20.23
2022-08-29T20:58:45.956Z,20.14
2022-08-29T21:01:15.678Z,20.07
2022-08-29T21:03:57.989Z,20.12
2022-08-29T21:06:31.376Z,20.02
2022-08-29T21:09:01.195Z,19.97
2022-08-29T21:11:31.911Z,19.87
2022-08-29T21:14:01.619Z,20.13
2022-08-29T21:16:32.504Z,19.99
2022-08-29T21:19:03.947Z,19.95
2022-08-29T21:21:36.192Z,19.90
2022-08-29T21:24:06.501Z,19.80
2022-08-29T21:26:37.635Z,19.63
2022-08-29T21:29:10.155Z,19.69
2022-08-29T21:31:41.314Z,19.65
2022-08-29T21:34:13.103Z,19.60
2022-08-29T21:36:47.610Z,19.62
2022-08-29T21:39:28.100Z,19.45
2022-08-29T21:42:02.938Z,19.40
2022-08-29T21:44:34.620Z,19.32
2022-08-29T21:47:04.402Z,19.31
2022-08-29T21:49:34.157Z,19.21
2022-08-29T21:52:07.142Z,19.13
2022-08-29T21:54:38.886Z,19.13
2022-08-29T21:57:08.395Z,19.12
2022-08-29T21:59:39.100Z,18.92
2022-08-29T22:02:12.186Z,19.08
2022-08-29T22:04:42.674Z,19.06
2022-08-29T22:07:16.192Z,19.03
2022-08-29T22:09:46.585Z,19.03
2022-08-29T22:12:16.250Z,18.96
2022-08-29T22:14:58.537Z,18.98
2022-08-29T22:17:29.315Z,18.99
2022-08-29T22:19:59.009Z,18.98
2022-08-29T22:22:32.318Z,18.79
2022-08-29T22:25:02.746Z,18.72
2022-08-29T22:27:32.468Z,18.96
2022-08-29T22:30:02.258Z,18.99
2022-08-29T22:32:35.892Z,18.96
2022-08-29T22:35:07.822Z,18.84
2022-08-29T22:37:40.116Z,18.90
2022-08-29T22:40:15.246Z,18.74
2022-08-29T22:42:45.521Z,18.79
2022-08-29T22:45:16.742Z,18.61
2022-08-29T22:47:49.106Z,18.67
2022-08-29T22:50:21.522Z,18.53
2022-08-29T22:52:57.482Z,18.44
2022-08-29T22:57:56.543Z,18.51
2022-08-29T23:00:28.989Z,18.61
2022-08-29T23:02:58.732Z,18.50
2022-08-29T23:05:28.682Z,18.45
2022-08-29T23:08:00.999Z,18.48
2022-08-29T23:10:30.686Z,18.57
2022-08-29T23:13:00.649Z,18.68
2022-08-29T23:15:30.552Z,18.70
2022-08-29T23:18:02.699Z,18.56
2022-08-29T23:20:32.346Z,18.55
2022-08-29T23:23:04.618Z,18.55
2022-08-29T23:25:38.272Z,18.47
2022-08-29T23:28:07.974Z,18.53
2022-08-29T23:30:37.669Z,18.67
2022-08-29T23:33:07.450Z,18.31
2022-08-29T23:35:38.735Z,18.54
2022-08-29T23:38:10.997Z,18.60
2022-08-29T23:40:40.780Z,18.53
2022-08-29T23:43:10.464Z,18.56
2022-08-29T23:45:40.717Z,18.55
2022-08-29T23:48:10.358Z,18.49
2022-08-29T23:50:39.991Z,18.65
2022-08-29T23:53:12.704Z,18.56
2022-08-29T23:55:43.544Z,18.59
2022-08-29T23:58:13.196Z,18.71
